This is the latest recevied weather packets stored in our database for station/object IZ5MJO-13. If no packets are shown the sender has not sent any weather packets the latest 10 day(s).
| Time | Temp. | Humidity | Pressure | Rain* | Wind** | Luminosity | Snow |
|---|---|---|---|---|---|---|---|
| 1777677220 | 11.67° C | 29% | 1014.5 hPa | - | - | - | - |
| 1777676319 | 11.67° C | 29% | 1014.5 hPa | - | - | - | - |
| 1777675419 | 11.67° C | 28% | 1014.4 hPa | - | - | - | - |
| 1777674519 | 11.67° C | 29% | 1014.4 hPa | - | - | - | - |
| 1777673618 | 11.67° C | 28% | 1014.2 hPa | - | - | - | - |
| 1777672718 | 11.67° C | 28% | 1014.2 hPa | - | - | - | - |
| 1777671817 | 12.22° C | 28% | 1014.2 hPa | - | - | - | - |
| 1777670917 | 12.22° C | 28% | 1014.2 hPa | - | - | - | - |
| 1777670017 | 12.22° C | 27% | 1014.2 hPa | - | - | - | - |
| 1777669116 | 12.22° C | 28% | 1014.2 hPa | - | - | - | - |
| 1777668216 | 12.22° C | 27% | 1014.1 hPa | - | - | - | - |
| 1777667316 | 12.22° C | 27% | 1014 hPa | - | - | - | - |
| 1777666423 | 12.78° C | 27% | 1014 hPa | - | - | - | - |
| 1777665523 | 12.78° C | 26% | 1013.7 hPa | - | - | - | - |
| 1777664623 | 12.78° C | 25% | 1013.6 hPa | - | - | - | - |
| 1777663723 | 12.78° C | 26% | 1013.5 hPa | - | - | - | - |
| 1777662822 | 12.78° C | 25% | 1013.2 hPa | - | - | - | - |
| 1777661921 | 13.33° C | 25% | 1013 hPa | - | - | - | - |
| 1777661396 | 23.33° C | 21% | 1012.2 hPa | - | - | - | - |
| 1777661172 | 23.33° C | 21% | 1012.3 hPa | - | - | - | - |
| 1777661155 | 23.33° C | 20% | 1012.5 hPa | - | - | - | - |
| 1777661067 | 23.33° C | 18% | 1012.5 hPa | - | - | - | - |
| 1777661021 | 13.33° C | 24% | 1012.9 hPa | - | - | - | - |
| 1777660121 | 13.89° C | 24% | 1012.7 hPa | - | - | - | - |
| 1777659221 | 15° C | 23% | 1012.8 hPa | - | - | - | - |
* Rain since midnight (hover to see other rain measurements)
** Current wind speed in m/s (hover to see current wind gust speed)